Main page
METAR-TAF:

METAR-TAF

Airports :

Osijek Airport

Osijek, Croatia

latitude: 45-27N, longitude: 018-48E, elevation: 88 m

Current weather observation

The report was made 34 minutes ago, at 14:00 UTC
Wind 5 kt from the Northwest, varying between West and North
Temperature 17°C
Humidity 39%
Pressure 1012 hPa
Visibility 10 km or more
no clouds below 1500 m and no cumulonimbus

METAR: LDOS 281400Z 32005KT 280V360 CAVOK 17/03 Q1012

Time: 15:34 (14:34 UTC)

Forecast

The report was made 3 hours and 9 minutes ago, at 11:25 UTC
Forecast valid from 28 at 12 UTC to 29 at 12 UTC
Wind 2 kt from variable directions
Visibility 10 km or more
no clouds below 1500 m and no cumulonimbus
Becoming
from 28 at 15 UTC to 28 at 17 UTC
Wind 7 kt from the West/Northwest

TAF: LDOS 281125Z 2812/2912 VRB02KT CAVOK TX18/2813Z TN05/2905Z BECMG 2815/2817 30007KT

Weather observations and forecasts of more than 4000 airports (METAR and TAF reports).

The available stations are represented by yellow and red dots on the map.

Hover mouse over dot to see the name of the station.

Then click to see weather observations and forecasts.

To change the map : click on the green buttons with a black cross to zoom in, on the green button with a dash to zoom out, or on the green arrows for adjacent maps.


METAR-TAF: